sensor_id;sensor_type;location;lat;lon;timestamp;temperature;humidity
28845;DHT22;15976;47.938;7.758;2022-11-14T00:00:46;7.40;76.00
28845;DHT22;15976;47.938;7.758;2022-11-14T00:03:31;7.40;76.10
28845;DHT22;15976;47.938;7.758;2022-11-14T00:06:18;7.40;76.00
28845;DHT22;15976;47.938;7.758;2022-11-14T00:09:03;7.40;76.00
28845;DHT22;15976;47.938;7.758;2022-11-14T00:11:49;7.30;76.10
28845;DHT22;15976;47.938;7.758;2022-11-14T00:14:35;7.30;76.10
28845;DHT22;15976;47.938;7.758;2022-11-14T00:17:21;7.30;76.30
28845;DHT22;15976;47.938;7.758;2022-11-14T00:20:09;7.30;76.40
28845;DHT22;15976;47.938;7.758;2022-11-14T00:22:55;7.30;76.50
28845;DHT22;15976;47.938;7.758;2022-11-14T00:25:43;7.30;76.30
28845;DHT22;15976;47.938;7.758;2022-11-14T00:28:29;7.30;76.20
28845;DHT22;15976;47.938;7.758;2022-11-14T00:31:15;7.30;76.20
28845;DHT22;15976;47.938;7.758;2022-11-14T00:34:01;7.30;76.20
28845;DHT22;15976;47.938;7.758;2022-11-14T00:36:46;7.30;76.30
28845;DHT22;15976;47.938;7.758;2022-11-14T00:39:32;7.20;76.20
28845;DHT22;15976;47.938;7.758;2022-11-14T00:42:17;7.20;76.30
28845;DHT22;15976;47.938;7.758;2022-11-14T00:45:03;7.20;76.30
28845;DHT22;15976;47.938;7.758;2022-11-14T00:47:49;7.20;76.20
28845;DHT22;15976;47.938;7.758;2022-11-14T00:50:35;7.20;76.20
28845;DHT22;15976;47.938;7.758;2022-11-14T00:53:22;7.20;76.20
28845;DHT22;15976;47.938;7.758;2022-11-14T00:56:08;7.20;76.20
28845;DHT22;15976;47.938;7.758;2022-11-14T00:58:53;7.20;76.20
28845;DHT22;15976;47.938;7.758;2022-11-14T01:01:39;7.10;76.00
28845;DHT22;15976;47.938;7.758;2022-11-14T01:04:24;7.10;76.00
28845;DHT22;15976;47.938;7.758;2022-11-14T01:07:10;7.10;76.10
28845;DHT22;15976;47.938;7.758;2022-11-14T01:09:55;7.10;76.00
28845;DHT22;15976;47.938;7.758;2022-11-14T01:12:41;7.10;76.20
28845;DHT22;15976;47.938;7.758;2022-11-14T01:15:27;7.00;76.00
28845;DHT22;15976;47.938;7.758;2022-11-14T01:18:15;7.00;76.10
28845;DHT22;15976;47.938;7.758;2022-11-14T01:21:10;7.00;76.00
28845;DHT22;15976;47.938;7.758;2022-11-14T01:23:56;6.90;76.00
28845;DHT22;15976;47.938;7.758;2022-11-14T01:26:42;6.90;76.20
28845;DHT22;15976;47.938;7.758;2022-11-14T01:29:28;6.90;76.50
28845;DHT22;15976;47.938;7.758;2022-11-14T01:32:13;6.90;76.50
28845;DHT22;15976;47.938;7.758;2022-11-14T01:34:59;6.90;76.30
28845;DHT22;15976;47.938;7.758;2022-11-14T01:37:44;6.80;76.20
28845;DHT22;15976;47.938;7.758;2022-11-14T01:40:32;6.80;76.10
28845;DHT22;15976;47.938;7.758;2022-11-14T01:46:30;6.80;76.00
28845;DHT22;15976;47.938;7.758;2022-11-14T01:49:29;6.80;76.20
28845;DHT22;15976;47.938;7.758;2022-11-14T01:52:28;6.80;76.30
28845;DHT22;15976;47.938;7.758;2022-11-14T01:55:14;6.70;76.30
28845;DHT22;15976;47.938;7.758;2022-11-14T01:58:00;6.70;76.30
28845;DHT22;15976;47.938;7.758;2022-11-14T02:00:46;6.80;76.40
28845;DHT22;15976;47.938;7.758;2022-11-14T02:03:35;6.80;76.50
28845;DHT22;15976;47.938;7.758;2022-11-14T02:06:24;6.80;76.50
28845;DHT22;15976;47.938;7.758;2022-11-14T02:09:12;6.80;76.40
28845;DHT22;15976;47.938;7.758;2022-11-14T02:12:00;6.80;76.50
28845;DHT22;15976;47.938;7.758;2022-11-14T02:14:49;6.70;76.30
28845;DHT22;15976;47.938;7.758;2022-11-14T02:17:36;6.70;76.00
28845;DHT22;15976;47.938;7.758;2022-11-14T02:20:27;6.70;75.90
28845;DHT22;15976;47.938;7.758;2022-11-14T02:23:13;6.60;75.70
28845;DHT22;15976;47.938;7.758;2022-11-14T02:26:00;6.60;76.00
28845;DHT22;15976;47.938;7.758;2022-11-14T02:28:46;6.50;76.10
28845;DHT22;15976;47.938;7.758;2022-11-14T02:31:32;6.50;76.00
28845;DHT22;15976;47.938;7.758;2022-11-14T02:34:18;6.40;75.90
28845;DHT22;15976;47.938;7.758;2022-11-14T02:37:05;6.40;75.90
28845;DHT22;15976;47.938;7.758;2022-11-14T02:39:51;6.30;75.90
28845;DHT22;15976;47.938;7.758;2022-11-14T02:42:36;6.30;76.20
28845;DHT22;15976;47.938;7.758;2022-11-14T02:45:22;6.30;76.40
28845;DHT22;15976;47.938;7.758;2022-11-14T02:48:07;6.30;77.40
28845;DHT22;15976;47.938;7.758;2022-11-14T02:50:53;6.30;76.70
28845;DHT22;15976;47.938;7.758;2022-11-14T02:53:38;6.30;76.40
28845;DHT22;15976;47.938;7.758;2022-11-14T02:56:24;6.30;76.80
28845;DHT22;15976;47.938;7.758;2022-11-14T02:59:09;6.30;77.10
28845;DHT22;15976;47.938;7.758;2022-11-14T03:01:55;6.30;77.10
28845;DHT22;15976;47.938;7.758;2022-11-14T03:04:41;6.30;77.00
28845;DHT22;15976;47.938;7.758;2022-11-14T03:07:27;6.40;77.10
28845;DHT22;15976;47.938;7.758;2022-11-14T03:10:13;6.40;77.10
28845;DHT22;15976;47.938;7.758;2022-11-14T03:12:58;6.40;77.00
28845;DHT22;15976;47.938;7.758;2022-11-14T03:15:45;6.40;77.10
28845;DHT22;15976;47.938;7.758;2022-11-14T03:18:30;6.40;77.10
28845;DHT22;15976;47.938;7.758;2022-11-14T03:21:18;6.40;77.10
28845;DHT22;15976;47.938;7.758;2022-11-14T03:24:05;6.40;77.20
28845;DHT22;15976;47.938;7.758;2022-11-14T03:26:50;6.40;77.50
28845;DHT22;15976;47.938;7.758;2022-11-14T03:29:36;6.40;77.70
28845;DHT22;15976;47.938;7.758;2022-11-14T03:32:22;6.40;77.70
28845;DHT22;15976;47.938;7.758;2022-11-14T03:35:08;6.40;77.80
28845;DHT22;15976;47.938;7.758;2022-11-14T03:37:54;6.40;77.60
28845;DHT22;15976;47.938;7.758;2022-11-14T03:40:41;6.50;77.70
28845;DHT22;15976;47.938;7.758;2022-11-14T03:43:30;6.50;77.60
28845;DHT22;15976;47.938;7.758;2022-11-14T03:46:16;6.50;77.70
28845;DHT22;15976;47.938;7.758;2022-11-14T03:49:02;6.50;77.70
28845;DHT22;15976;47.938;7.758;2022-11-14T03:51:48;6.50;77.60
28845;DHT22;15976;47.938;7.758;2022-11-14T03:54:34;6.50;77.70
28845;DHT22;15976;47.938;7.758;2022-11-14T03:57:20;6.50;77.50
28845;DHT22;15976;47.938;7.758;2022-11-14T04:00:06;6.50;77.60
28845;DHT22;15976;47.938;7.758;2022-11-14T04:02:53;6.60;77.80
28845;DHT22;15976;47.938;7.758;2022-11-14T04:05:43;6.60;78.00
28845;DHT22;15976;47.938;7.758;2022-11-14T04:08:30;6.60;78.20
28845;DHT22;15976;47.938;7.758;2022-11-14T04:11:16;6.70;78.50
28845;DHT22;15976;47.938;7.758;2022-11-14T04:14:02;6.70;78.70
28845;DHT22;15976;47.938;7.758;2022-11-14T04:16:48;6.80;78.90
28845;DHT22;15976;47.938;7.758;2022-11-14T04:19:33;6.80;78.90
28845;DHT22;15976;47.938;7.758;2022-11-14T04:22:19;6.90;78.90
28845;DHT22;15976;47.938;7.758;2022-11-14T04:25:06;6.90;79.60
28845;DHT22;15976;47.938;7.758;2022-11-14T04:27:52;7.00;78.90
28845;DHT22;15976;47.938;7.758;2022-11-14T04:30:37;7.00;79.00
28845;DHT22;15976;47.938;7.758;2022-11-14T04:33:23;7.10;79.20
28845;DHT22;15976;47.938;7.758;2022-11-14T04:36:09;7.10;79.30
28845;DHT22;15976;47.938;7.758;2022-11-14T04:38:55;7.10;79.20
28845;DHT22;15976;47.938;7.758;2022-11-14T04:41:41;7.20;79.30
28845;DHT22;15976;47.938;7.758;2022-11-14T04:44:26;7.20;79.30
28845;DHT22;15976;47.938;7.758;2022-11-14T04:47:12;7.20;79.10
28845;DHT22;15976;47.938;7.758;2022-11-14T04:49:58;7.30;79.10
28845;DHT22;15976;47.938;7.758;2022-11-14T04:52:44;7.20;79.00
28845;DHT22;15976;47.938;7.758;2022-11-14T04:55:30;7.30;79.20
28845;DHT22;15976;47.938;7.758;2022-11-14T04:58:15;7.30;79.30
28845;DHT22;15976;47.938;7.758;2022-11-14T05:01:09;7.30;79.40
28845;DHT22;15976;47.938;7.758;2022-11-14T05:03:55;7.30;79.40
28845;DHT22;15976;47.938;7.758;2022-11-14T05:06:41;7.40;79.40
28845;DHT22;15976;47.938;7.758;2022-11-14T05:09:27;7.40;79.40
28845;DHT22;15976;47.938;7.758;2022-11-14T05:12:12;7.40;79.40
28845;DHT22;15976;47.938;7.758;2022-11-14T05:14:58;7.40;79.60
28845;DHT22;15976;47.938;7.758;2022-11-14T05:17:43;7.40;79.50
28845;DHT22;15976;47.938;7.758;2022-11-14T05:20:29;7.40;79.60
28845;DHT22;15976;47.938;7.758;2022-11-14T05:23:21;7.40;79.70
28845;DHT22;15976;47.938;7.758;2022-11-14T05:26:09;7.50;79.70
28845;DHT22;15976;47.938;7.758;2022-11-14T05:28:55;7.50;79.60
28845;DHT22;15976;47.938;7.758;2022-11-14T05:31:41;7.50;79.60
28845;DHT22;15976;47.938;7.758;2022-11-14T05:34:27;7.50;79.50
28845;DHT22;15976;47.938;7.758;2022-11-14T05:37:13;7.50;79.40
28845;DHT22;15976;47.938;7.758;2022-11-14T05:39:58;7.40;79.60
28845;DHT22;15976;47.938;7.758;2022-11-14T05:42:44;7.50;79.80
28845;DHT22;15976;47.938;7.758;2022-11-14T05:45:31;7.50;79.60
28845;DHT22;15976;47.938;7.758;2022-11-14T05:48:17;7.40;79.80
28845;DHT22;15976;47.938;7.758;2022-11-14T05:51:04;7.40;80.00
28845;DHT22;15976;47.938;7.758;2022-11-14T05:53:51;7.40;80.00
28845;DHT22;15976;47.938;7.758;2022-11-14T05:56:36;7.50;80.10
28845;DHT22;15976;47.938;7.758;2022-11-14T05:59:22;7.50;80.10
28845;DHT22;15976;47.938;7.758;2022-11-14T06:02:08;7.60;80.20
28845;DHT22;15976;47.938;7.758;2022-11-14T06:04:54;7.60;80.10
28845;DHT22;15976;47.938;7.758;2022-11-14T06:07:40;7.60;80.20
28845;DHT22;15976;47.938;7.758;2022-11-14T06:10:25;7.60;80.40
28845;DHT22;15976;47.938;7.758;2022-11-14T06:13:12;7.60;80.50
28845;DHT22;15976;47.938;7.758;2022-11-14T06:16:06;7.70;80.60
28845;DHT22;15976;47.938;7.758;2022-11-14T06:18:52;7.70;80.40
28845;DHT22;15976;47.938;7.758;2022-11-14T06:21:38;7.70;80.60
28845;DHT22;15976;47.938;7.758;2022-11-14T06:24:23;7.70;80.70
28845;DHT22;15976;47.938;7.758;2022-11-14T06:27:09;7.80;80.80
28845;DHT22;15976;47.938;7.758;2022-11-14T06:29:55;7.80;80.70
28845;DHT22;15976;47.938;7.758;2022-11-14T06:32:40;7.90;80.90
28845;DHT22;15976;47.938;7.758;2022-11-14T06:35:26;7.90;80.90
28845;DHT22;15976;47.938;7.758;2022-11-14T06:38:12;7.90;80.80
28845;DHT22;15976;47.938;7.758;2022-11-14T06:41:09;7.90;80.80
28845;DHT22;15976;47.938;7.758;2022-11-14T06:43:55;7.90;80.70
28845;DHT22;15976;47.938;7.758;2022-11-14T06:46:40;7.90;80.70
28845;DHT22;15976;47.938;7.758;2022-11-14T06:49:26;8.00;80.90
28845;DHT22;15976;47.938;7.758;2022-11-14T06:52:12;8.00;81.00
28845;DHT22;15976;47.938;7.758;2022-11-14T06:54:57;8.00;80.70
28845;DHT22;15976;47.938;7.758;2022-11-14T06:57:43;8.00;80.70
28845;DHT22;15976;47.938;7.758;2022-11-14T07:00:28;8.00;80.90
28845;DHT22;15976;47.938;7.758;2022-11-14T07:03:14;8.10;81.10
28845;DHT22;15976;47.938;7.758;2022-11-14T07:06:01;8.10;81.00
28845;DHT22;15976;47.938;7.758;2022-11-14T07:08:46;8.10;81.90
28845;DHT22;15976;47.938;7.758;2022-11-14T07:11:34;8.20;81.20
28845;DHT22;15976;47.938;7.758;2022-11-14T07:14:19;8.10;80.90
28845;DHT22;15976;47.938;7.758;2022-11-14T07:17:05;8.10;81.30
28845;DHT22;15976;47.938;7.758;2022-11-14T07:19:51;8.20;81.60
28845;DHT22;15976;47.938;7.758;2022-11-14T07:22:36;8.20;81.60
28845;DHT22;15976;47.938;7.758;2022-11-14T07:25:22;8.30;81.60
28845;DHT22;15976;47.938;7.758;2022-11-14T07:28:08;8.30;81.80
28845;DHT22;15976;47.938;7.758;2022-11-14T07:30:54;8.40;81.80
28845;DHT22;15976;47.938;7.758;2022-11-14T07:33:40;8.40;81.70
28845;DHT22;15976;47.938;7.758;2022-11-14T07:36:26;8.40;81.90
28845;DHT22;15976;47.938;7.758;2022-11-14T07:39:12;8.50;82.10
28845;DHT22;15976;47.938;7.758;2022-11-14T07:41:57;8.50;81.80
28845;DHT22;15976;47.938;7.758;2022-11-14T07:44:43;8.60;82.20
28845;DHT22;15976;47.938;7.758;2022-11-14T07:47:28;8.60;82.20
28845;DHT22;15976;47.938;7.758;2022-11-14T07:50:14;8.70;82.20
28845;DHT22;15976;47.938;7.758;2022-11-14T07:53:04;8.80;82.10
28845;DHT22;15976;47.938;7.758;2022-11-14T07:55:50;8.80;81.90
28845;DHT22;15976;47.938;7.758;2022-11-14T07:58:39;8.90;81.80
28845;DHT22;15976;47.938;7.758;2022-11-14T08:01:25;8.90;81.80
28845;DHT22;15976;47.938;7.758;2022-11-14T08:04:11;9.00;81.90
28845;DHT22;15976;47.938;7.758;2022-11-14T08:06:57;9.00;81.80
28845;DHT22;15976;47.938;7.758;2022-11-14T08:09:43;9.00;82.10
28845;DHT22;15976;47.938;7.758;2022-11-14T08:12:28;9.00;82.20
28845;DHT22;15976;47.938;7.758;2022-11-14T08:15:14;9.10;82.20
28845;DHT22;15976;47.938;7.758;2022-11-14T08:18:00;9.10;82.10
28845;DHT22;15976;47.938;7.758;2022-11-14T08:20:46;9.10;81.90
28845;DHT22;15976;47.938;7.758;2022-11-14T08:23:31;9.20;81.80
28845;DHT22;15976;47.938;7.758;2022-11-14T08:26:17;9.20;81.70
28845;DHT22;15976;47.938;7.758;2022-11-14T08:29:03;9.20;81.40
28845;DHT22;15976;47.938;7.758;2022-11-14T08:31:49;9.20;81.70
28845;DHT22;15976;47.938;7.758;2022-11-14T08:34:34;9.20;81.70
28845;DHT22;15976;47.938;7.758;2022-11-14T08:37:21;9.30;81.90
28845;DHT22;15976;47.938;7.758;2022-11-14T08:40:06;9.30;81.90
28845;DHT22;15976;47.938;7.758;2022-11-14T08:42:58;9.30;82.00
28845;DHT22;15976;47.938;7.758;2022-11-14T08:45:44;9.40;81.90
28845;DHT22;15976;47.938;7.758;2022-11-14T08:48:30;9.50;82.00
28845;DHT22;15976;47.938;7.758;2022-11-14T08:51:16;9.50;82.00
28845;DHT22;15976;47.938;7.758;2022-11-14T08:54:02;9.50;82.00
28845;DHT22;15976;47.938;7.758;2022-11-14T08:56:48;9.50;82.00
28845;DHT22;15976;47.938;7.758;2022-11-14T08:59:34;9.60;81.80
28845;DHT22;15976;47.938;7.758;2022-11-14T09:02:19;9.60;81.40
28845;DHT22;15976;47.938;7.758;2022-11-14T09:05:06;9.50;81.50
28845;DHT22;15976;47.938;7.758;2022-11-14T09:07:51;9.60;81.50
28845;DHT22;15976;47.938;7.758;2022-11-14T09:10:37;9.60;81.50
28845;DHT22;15976;47.938;7.758;2022-11-14T09:13:23;9.60;81.80
28845;DHT22;15976;47.938;7.758;2022-11-14T09:16:08;9.70;81.70
28845;DHT22;15976;47.938;7.758;2022-11-14T09:18:54;9.70;81.60
28845;DHT22;15976;47.938;7.758;2022-11-14T09:21:40;9.70;81.80
28845;DHT22;15976;47.938;7.758;2022-11-14T09:24:25;9.80;82.00
28845;DHT22;15976;47.938;7.758;2022-11-14T09:27:11;9.80;82.10
28845;DHT22;15976;47.938;7.758;2022-11-14T09:29:57;9.90;82.20
28845;DHT22;15976;47.938;7.758;2022-11-14T09:32:43;10.00;82.20
28845;DHT22;15976;47.938;7.758;2022-11-14T09:35:29;10.00;82.20
28845;DHT22;15976;47.938;7.758;2022-11-14T09:38:15;10.10;81.80
28845;DHT22;15976;47.938;7.758;2022-11-14T09:47:12;10.10;81.80
28845;DHT22;15976;47.938;7.758;2022-11-14T09:50:13;10.20;81.70
28845;DHT22;15976;47.938;7.758;2022-11-14T09:53:11;10.20;81.80
28845;DHT22;15976;47.938;7.758;2022-11-14T09:55:58;10.20;82.10
28845;DHT22;15976;47.938;7.758;2022-11-14T09:58:43;10.30;82.20
28845;DHT22;15976;47.938;7.758;2022-11-14T10:01:48;10.30;82.00
28845;DHT22;15976;47.938;7.758;2022-11-14T10:38:53;10.70;81.40
28845;DHT22;15976;47.938;7.758;2022-11-14T10:41:41;10.70;81.60
28845;DHT22;15976;47.938;7.758;2022-11-14T10:45:06;10.70;81.70
28845;DHT22;15976;47.938;7.758;2022-11-14T10:47:56;10.90;82.40
28845;DHT22;15976;47.938;7.758;2022-11-14T10:50:57;11.00;83.10
28845;DHT22;15976;47.938;7.758;2022-11-14T10:56:48;11.60;84.00
28845;DHT22;15976;47.938;7.758;2022-11-14T10:59:34;11.80;84.10
28845;DHT22;15976;47.938;7.758;2022-11-14T11:02:20;12.10;84.10
28845;DHT22;15976;47.938;7.758;2022-11-14T11:05:17;12.30;83.70
28845;DHT22;15976;47.938;7.758;2022-11-14T11:08:10;12.60;83.30
28845;DHT22;15976;47.938;7.758;2022-11-14T11:11:28;12.80;82.80
28845;DHT22;15976;47.938;7.758;2022-11-14T11:14:18;13.00;82.30
28845;DHT22;15976;47.938;7.758;2022-11-14T11:20:23;13.10;81.40
28845;DHT22;15976;47.938;7.758;2022-11-14T11:29:05;13.30;80.80
28845;DHT22;15976;47.938;7.758;2022-11-14T11:31:52;13.30;80.50
28845;DHT22;15976;47.938;7.758;2022-11-14T11:34:38;13.40;80.70
28845;DHT22;15976;47.938;7.758;2022-11-14T11:37:27;13.40;80.80
28845;DHT22;15976;47.938;7.758;2022-11-14T11:40:20;13.60;80.60
28845;DHT22;15976;47.938;7.758;2022-11-14T11:43:15;13.70;80.50
28845;DHT22;15976;47.938;7.758;2022-11-14T11:49:48;13.80;79.50
28845;DHT22;15976;47.938;7.758;2022-11-14T11:55:49;13.90;79.40
28845;DHT22;15976;47.938;7.758;2022-11-14T11:58:50;13.90;79.30
28845;DHT22;15976;47.938;7.758;2022-11-14T12:01:41;13.90;79.10
28845;DHT22;15976;47.938;7.758;2022-11-14T12:04:27;14.00;78.80
28845;DHT22;15976;47.938;7.758;2022-11-14T12:07:21;13.90;78.20
28845;DHT22;15976;47.938;7.758;2022-11-14T12:10:20;13.90;78.10
28845;DHT22;15976;47.938;7.758;2022-11-14T12:19:56;14.00;78.20
28845;DHT22;15976;47.938;7.758;2022-11-14T12:22:49;14.00;77.80
28845;DHT22;15976;47.938;7.758;2022-11-14T12:31:34;14.00;78.00
28845;DHT22;15976;47.938;7.758;2022-11-14T12:34:36;14.10;78.10
28845;DHT22;15976;47.938;7.758;2022-11-14T12:37:30;14.10;77.90
28845;DHT22;15976;47.938;7.758;2022-11-14T12:40:26;14.00;77.50
28845;DHT22;15976;47.938;7.758;2022-11-14T12:43:36;14.00;77.60
28845;DHT22;15976;47.938;7.758;2022-11-14T12:46:24;14.10;77.90
28845;DHT22;15976;47.938;7.758;2022-11-14T12:52:51;14.10;77.70
28845;DHT22;15976;47.938;7.758;2022-11-14T12:58:50;14.10;77.50
28845;DHT22;15976;47.938;7.758;2022-11-14T13:05:02;14.10;77.40
28845;DHT22;15976;47.938;7.758;2022-11-14T13:11:31;14.10;77.40
28845;DHT22;15976;47.938;7.758;2022-11-14T13:14:48;14.10;77.40
28845;DHT22;15976;47.938;7.758;2022-11-14T13:27:44;14.20;77.40
28845;DHT22;15976;47.938;7.758;2022-11-14T13:31:52;14.30;77.60
28845;DHT22;15976;47.938;7.758;2022-11-14T13:37:44;14.40;77.20
28845;DHT22;15976;47.938;7.758;2022-11-14T13:50:39;15.10;76.40
28845;DHT22;15976;47.938;7.758;2022-11-14T13:53:29;15.20;76.10
28845;DHT22;15976;47.938;7.758;2022-11-14T13:56:30;15.30;75.00
28845;DHT22;15976;47.938;7.758;2022-11-14T14:20:46;14.80;71.80
28845;DHT22;15976;47.938;7.758;2022-11-14T14:23:47;14.70;72.00
28845;DHT22;15976;47.938;7.758;2022-11-14T14:26:53;14.70;72.10
28845;DHT22;15976;47.938;7.758;2022-11-14T14:32:33;14.50;71.70
28845;DHT22;15976;47.938;7.758;2022-11-14T14:35:27;14.30;71.50
28845;DHT22;15976;47.938;7.758;2022-11-14T14:38:23;14.10;71.60
28845;DHT22;15976;47.938;7.758;2022-11-14T14:41:10;13.90;71.50
28845;DHT22;15976;47.938;7.758;2022-11-14T14:43:58;13.80;71.60
28845;DHT22;15976;47.938;7.758;2022-11-14T14:46:44;13.60;71.90
28845;DHT22;15976;47.938;7.758;2022-11-14T14:49:35;13.50;72.20
28845;DHT22;15976;47.938;7.758;2022-11-14T14:52:36;13.30;72.60
28845;DHT22;15976;47.938;7.758;2022-11-14T14:55:25;13.20;73.20
28845;DHT22;15976;47.938;7.758;2022-11-14T14:58:32;13.10;73.10
28845;DHT22;15976;47.938;7.758;2022-11-14T15:01:30;13.10;73.50
28845;DHT22;15976;47.938;7.758;2022-11-14T15:04:17;13.10;73.10
28845;DHT22;15976;47.938;7.758;2022-11-14T15:07:05;13.20;72.90
28845;DHT22;15976;47.938;7.758;2022-11-14T15:10:01;13.20;72.70
28845;DHT22;15976;47.938;7.758;2022-11-14T15:12:47;13.20;72.50
28845;DHT22;15976;47.938;7.758;2022-11-14T15:15:33;13.20;72.20
28845;DHT22;15976;47.938;7.758;2022-11-14T15:18:24;13.20;72.10
28845;DHT22;15976;47.938;7.758;2022-11-14T15:24:19;13.40;72.40
28845;DHT22;15976;47.938;7.758;2022-11-14T15:27:16;13.40;73.70
28845;DHT22;15976;47.938;7.758;2022-11-14T15:30:05;13.50;75.00
28845;DHT22;15976;47.938;7.758;2022-11-14T15:32:53;13.60;75.40
28845;DHT22;15976;47.938;7.758;2022-11-14T15:35:40;13.80;75.40
28845;DHT22;15976;47.938;7.758;2022-11-14T15:38:26;13.80;75.20
28845;DHT22;15976;47.938;7.758;2022-11-14T15:41:30;13.90;75.00
28845;DHT22;15976;47.938;7.758;2022-11-14T15:44:33;14.00;74.80
28845;DHT22;15976;47.938;7.758;2022-11-14T15:47:24;14.10;74.20
28845;DHT22;15976;47.938;7.758;2022-11-14T15:52:59;14.20;73.80
28845;DHT22;15976;47.938;7.758;2022-11-14T15:55:46;14.30;73.80
28845;DHT22;15976;47.938;7.758;2022-11-14T15:58:31;14.30;73.40
28845;DHT22;15976;47.938;7.758;2022-11-14T16:01:22;14.40;73.20
28845;DHT22;15976;47.938;7.758;2022-11-14T16:04:15;14.50;72.70
28845;DHT22;15976;47.938;7.758;2022-11-14T16:07:01;14.50;72.30
28845;DHT22;15976;47.938;7.758;2022-11-14T16:09:47;14.50;72.20
28845;DHT22;15976;47.938;7.758;2022-11-14T16:12:33;14.50;71.90
28845;DHT22;15976;47.938;7.758;2022-11-14T16:15:19;14.60;72.40
28845;DHT22;15976;47.938;7.758;2022-11-14T16:18:05;14.60;71.40
28845;DHT22;15976;47.938;7.758;2022-11-14T16:20:51;14.60;71.20
28845;DHT22;15976;47.938;7.758;2022-11-14T16:23:36;14.60;71.00
28845;DHT22;15976;47.938;7.758;2022-11-14T16:26:23;14.70;70.90
28845;DHT22;15976;47.938;7.758;2022-11-14T16:29:10;14.70;70.70
28845;DHT22;15976;47.938;7.758;2022-11-14T16:31:56;14.70;70.50
28845;DHT22;15976;47.938;7.758;2022-11-14T16:34:42;14.70;70.40
28845;DHT22;15976;47.938;7.758;2022-11-14T16:37:27;14.80;70.10
28845;DHT22;15976;47.938;7.758;2022-11-14T16:40:19;14.90;70.00
28845;DHT22;15976;47.938;7.758;2022-11-14T16:43:12;14.90;69.50
28845;DHT22;15976;47.938;7.758;2022-11-14T16:46:02;15.00;69.10
28845;DHT22;15976;47.938;7.758;2022-11-14T16:48:48;15.10;68.70
28845;DHT22;15976;47.938;7.758;2022-11-14T16:51:34;15.10;68.60
28845;DHT22;15976;47.938;7.758;2022-11-14T16:54:35;15.20;68.40
28845;DHT22;15976;47.938;7.758;2022-11-14T16:57:21;15.20;68.30
28845;DHT22;15976;47.938;7.758;2022-11-14T17:00:10;15.20;68.00
28845;DHT22;15976;47.938;7.758;2022-11-14T17:02:57;15.20;67.60
28845;DHT22;15976;47.938;7.758;2022-11-14T17:05:44;15.20;67.50
28845;DHT22;15976;47.938;7.758;2022-11-14T17:08:30;15.30;67.20
28845;DHT22;15976;47.938;7.758;2022-11-14T17:11:16;15.30;67.00
28845;DHT22;15976;47.938;7.758;2022-11-14T17:14:02;15.30;66.90
28845;DHT22;15976;47.938;7.758;2022-11-14T17:16:47;15.30;66.70
28845;DHT22;15976;47.938;7.758;2022-11-14T17:19:33;15.30;66.40
28845;DHT22;15976;47.938;7.758;2022-11-14T17:22:18;15.40;66.30
28845;DHT22;15976;47.938;7.758;2022-11-14T17:25:04;15.40;66.20
28845;DHT22;15976;47.938;7.758;2022-11-14T17:27:51;15.40;65.60
28845;DHT22;15976;47.938;7.758;2022-11-14T17:30:42;15.30;65.60
28845;DHT22;15976;47.938;7.758;2022-11-14T17:33:28;15.20;65.20
28845;DHT22;15976;47.938;7.758;2022-11-14T17:36:14;15.10;65.40
28845;DHT22;15976;47.938;7.758;2022-11-14T17:39:00;15.10;65.60
28845;DHT22;15976;47.938;7.758;2022-11-14T17:41:45;15.10;65.70
28845;DHT22;15976;47.938;7.758;2022-11-14T17:44:31;15.20;65.80
28845;DHT22;15976;47.938;7.758;2022-11-14T17:47:16;15.20;65.60
28845;DHT22;15976;47.938;7.758;2022-11-14T17:50:03;15.20;65.30
28845;DHT22;15976;47.938;7.758;2022-11-14T17:52:48;15.20;65.20
28845;DHT22;15976;47.938;7.758;2022-11-14T17:55:34;15.20;65.10
28845;DHT22;15976;47.938;7.758;2022-11-14T17:58:21;15.30;65.00
28845;DHT22;15976;47.938;7.758;2022-11-14T18:01:10;15.30;64.80
28845;DHT22;15976;47.938;7.758;2022-11-14T18:03:57;15.30;64.40
28845;DHT22;15976;47.938;7.758;2022-11-14T18:06:50;15.30;64.50
28845;DHT22;15976;47.938;7.758;2022-11-14T18:09:36;15.40;64.50
28845;DHT22;15976;47.938;7.758;2022-11-14T18:12:21;15.40;65.10
28845;DHT22;15976;47.938;7.758;2022-11-14T18:15:07;15.40;64.20
28845;DHT22;15976;47.938;7.758;2022-11-14T18:17:53;15.40;64.00
28845;DHT22;15976;47.938;7.758;2022-11-14T18:20:39;15.40;64.00
28845;DHT22;15976;47.938;7.758;2022-11-14T18:23:24;15.40;63.80
28845;DHT22;15976;47.938;7.758;2022-11-14T18:26:11;15.50;63.90
28845;DHT22;15976;47.938;7.758;2022-11-14T18:28:58;15.40;63.60
28845;DHT22;15976;47.938;7.758;2022-11-14T18:31:45;15.40;63.60
28845;DHT22;15976;47.938;7.758;2022-11-14T18:34:32;15.40;63.60
28845;DHT22;15976;47.938;7.758;2022-11-14T18:37:21;15.50;63.60
28845;DHT22;15976;47.938;7.758;2022-11-14T18:40:07;15.50;63.50
28845;DHT22;15976;47.938;7.758;2022-11-14T18:43:01;15.50;63.40
28845;DHT22;15976;47.938;7.758;2022-11-14T18:45:46;15.50;63.20
28845;DHT22;15976;47.938;7.758;2022-11-14T18:48:32;15.40;63.10
28845;DHT22;15976;47.938;7.758;2022-11-14T18:51:20;15.50;63.10
28845;DHT22;15976;47.938;7.758;2022-11-14T18:54:14;15.40;62.80
28845;DHT22;15976;47.938;7.758;2022-11-14T18:57:00;15.50;62.70
28845;DHT22;15976;47.938;7.758;2022-11-14T18:59:45;15.50;62.70
28845;DHT22;15976;47.938;7.758;2022-11-14T19:02:31;15.50;62.50
28845;DHT22;15976;47.938;7.758;2022-11-14T19:05:17;15.50;62.40
28845;DHT22;15976;47.938;7.758;2022-11-14T19:08:02;15.50;62.30
28845;DHT22;15976;47.938;7.758;2022-11-14T19:10:49;15.50;62.20
28845;DHT22;15976;47.938;7.758;2022-11-14T19:13:35;15.50;62.20
28845;DHT22;15976;47.938;7.758;2022-11-14T19:16:21;15.50;61.80
28845;DHT22;15976;47.938;7.758;2022-11-14T19:19:08;15.40;61.30
28845;DHT22;15976;47.938;7.758;2022-11-14T19:22:05;15.40;61.20
28845;DHT22;15976;47.938;7.758;2022-11-14T19:25:13;15.30;61.00
28845;DHT22;15976;47.938;7.758;2022-11-14T19:28:00;15.30;60.90
28845;DHT22;15976;47.938;7.758;2022-11-14T19:31:01;15.30;61.00
28845;DHT22;15976;47.938;7.758;2022-11-14T19:34:07;15.30;60.90
28845;DHT22;15976;47.938;7.758;2022-11-14T19:36:59;15.30;61.00
28845;DHT22;15976;47.938;7.758;2022-11-14T19:39:58;15.20;60.90
28845;DHT22;15976;47.938;7.758;2022-11-14T19:42:55;15.10;60.70
28845;DHT22;15976;47.938;7.758;2022-11-14T19:46:18;15.10;60.60
28845;DHT22;15976;47.938;7.758;2022-11-14T19:49:11;15.00;60.80
28845;DHT22;15976;47.938;7.758;2022-11-14T19:52:18;14.90;60.80
28845;DHT22;15976;47.938;7.758;2022-11-14T19:55:13;14.80;60.80
28845;DHT22;15976;47.938;7.758;2022-11-14T19:58:36;14.80;60.70
28845;DHT22;15976;47.938;7.758;2022-11-14T20:01:34;14.70;60.70
28845;DHT22;15976;47.938;7.758;2022-11-14T20:04:29;14.70;60.90
28845;DHT22;15976;47.938;7.758;2022-11-14T20:07:25;14.70;60.70
28845;DHT22;15976;47.938;7.758;2022-11-14T20:10:19;14.60;61.70
28845;DHT22;15976;47.938;7.758;2022-11-14T20:13:15;14.50;60.70
28845;DHT22;15976;47.938;7.758;2022-11-14T20:19:14;14.40;60.90
28845;DHT22;15976;47.938;7.758;2022-11-14T20:22:08;14.40;60.90